Capitol Logistics 3269


KMIA
Miami International Airport
Miami, Florida, US
MYGF
Grand Bahama International Airport
Freeport, , BS

Activity Log

Date Flight Route Aircraft Duration
04/10/2020 CPX3269 PADUS2 PADUS SF34 0h 56m
11/05/2019 CPX669 PADUS2 PADUS SF34 0h 50m
10/11/2019 CPX669 PADUS2 PADUS SF34 0h 35m
06/27/2019 CPX669 PADUS2 PADUS SF34 0h 35m

Route Details

Aircraft Information
Primary: Saab 340AF
Backup: Not Available
Route Data
Distance: 98nm
Sched. Duration: 1h 10m
Avg. Duration: 0h 44m (-66m)
Times Flown: 4
Recm'd Route: PADUS2 PADUS
Planned Altitude: 15,000ft
Origin Wx: KMIA 251053Z 00000KT 10SM FEW020 SCT055 BKN090 OVC130 24/24 A2987 RMK AO2 RAE47 SLP115 P0000 T02440239 $
Dest. Wx: MYGF 250000Z 14006KT 9999 VCSH FEW012CB SCT050 BKN100 26/25 A2990 RMK CB SCT ALQDS
Notes:

Financial History
Total Freight: 19,550lbs
Average Load: 4,888lbs/flt
Fuel Used: 1,713lbs
Avg. Fuel Used: 428lbs/flt
Fuel Expense: $2,107
Avg. Fuel Expense: $527
Avg. Fuel Cost: $1.23/lbs
Total Gross Income: $22,709
Pilot Pay: $756
Total Expenses: $2,661
Total Revenue: $17,441
Average Revenue: $5,677.36